createdAt,value
2024-02-02T00:04:46.825Z,4.70
2024-02-02T00:09:51.496Z,5.30
2024-02-02T00:14:55.291Z,4.47
2024-02-02T00:19:58.947Z,4.27
2024-02-02T00:25:03.728Z,4.40
2024-02-02T00:30:08.052Z,3.80
2024-02-02T00:35:11.319Z,3.53
2024-02-02T00:40:18.484Z,3.60
2024-02-02T00:45:23.276Z,3.97
2024-02-02T00:50:26.659Z,4.97
2024-02-02T00:55:31.513Z,4.30
2024-02-02T01:00:34.954Z,4.37
2024-02-02T01:05:38.654Z,4.60
2024-02-02T01:10:43.531Z,3.70
2024-02-02T01:15:47.855Z,3.87
2024-02-02T01:20:51.173Z,4.27
2024-02-02T01:25:55.904Z,3.20
2024-02-02T01:30:59.218Z,4.17
2024-02-02T01:36:02.696Z,3.50
2024-02-02T01:41:07.852Z,4.50
2024-02-02T01:46:11.087Z,3.97
2024-02-02T01:51:14.456Z,4.10
2024-02-02T01:56:19.148Z,4.30
2024-02-02T02:01:22.711Z,3.63
2024-02-02T02:06:26.262Z,3.87
2024-02-02T02:11:31.211Z,3.30
2024-02-02T02:16:34.504Z,4.07
2024-02-02T02:21:39.334Z,4.00
2024-02-02T02:26:45.866Z,5.83
2024-02-02T02:31:56.090Z,6.03
2024-02-02T02:37:00.978Z,7.10
2024-02-02T02:42:05.964Z,5.40
2024-02-02T02:47:09.426Z,7.07
2024-02-02T02:52:14.177Z,6.80
2024-02-02T02:57:17.434Z,6.73
2024-02-02T03:02:20.889Z,7.33
2024-02-02T03:07:25.577Z,6.23
2024-02-02T03:12:29.271Z,5.90
2024-02-02T03:17:32.825Z,6.00
2024-02-02T03:22:37.445Z,5.60
2024-02-02T03:27:40.773Z,6.20
2024-02-02T03:32:45.681Z,6.50
2024-02-02T03:37:50.735Z,6.13
2024-02-02T03:42:54.026Z,6.40
2024-02-02T03:47:57.361Z,6.30
2024-02-02T03:53:02.310Z,5.77
2024-02-02T03:58:06.084Z,6.33
2024-02-02T04:03:09.447Z,5.83
2024-02-02T04:08:14.265Z,6.23
2024-02-02T04:13:17.542Z,5.60
2024-02-02T04:18:20.912Z,5.80
2024-02-02T04:23:27.099Z,6.07
2024-02-02T04:28:30.412Z,5.40
2024-02-02T04:33:33.734Z,6.77
2024-02-02T04:38:39.347Z,5.60
2024-02-02T04:43:43.488Z,6.87
2024-02-02T04:48:47.052Z,6.50
2024-02-02T04:53:52.038Z,5.80
2024-02-02T04:58:55.427Z,5.37
2024-02-02T05:03:58.695Z,5.17
2024-02-02T05:09:03.881Z,5.10
2024-02-02T05:14:07.218Z,5.10
2024-02-02T05:19:10.908Z,4.90
2024-02-02T05:24:29.513Z,5.50
2024-02-02T05:29:39.149Z,5.10
2024-02-02T05:34:43.750Z,6.00
2024-02-02T05:39:48.899Z,5.17
2024-02-02T05:44:52.225Z,4.87
2024-02-02T05:49:55.511Z,5.00
2024-02-02T05:55:00.168Z,4.07
2024-02-02T06:00:04.751Z,5.17
2024-02-02T06:05:09.550Z,5.00
2024-02-02T06:10:14.534Z,4.80
2024-02-02T06:15:17.876Z,4.10
2024-02-02T06:20:21.224Z,4.03
2024-02-02T06:25:26.286Z,7.50
2024-02-02T06:30:29.951Z,4.07
2024-02-02T06:35:33.315Z,3.77
2024-02-02T06:40:38.143Z,5.53
2024-02-02T06:45:42.696Z,4.03
2024-02-02T06:50:46.890Z,3.43
2024-02-02T06:55:51.744Z,4.77
2024-02-02T07:00:55.128Z,2.90
2024-02-02T07:05:58.659Z,3.33
2024-02-02T07:11:08.076Z,3.37
2024-02-02T07:16:15.796Z,3.37
2024-02-02T07:21:19.303Z,2.93
2024-02-02T07:26:28.394Z,3.37
2024-02-02T07:31:39.775Z,2.00
2024-02-02T07:36:43.139Z,2.83
2024-02-02T07:41:47.759Z,2.50
2024-02-02T07:46:51.157Z,2.40
2024-02-02T07:51:54.596Z,2.10
2024-02-02T07:56:59.414Z,3.40
2024-02-02T08:02:02.846Z,2.63
2024-02-02T08:07:06.492Z,2.47
2024-02-02T08:12:11.385Z,2.67
2024-02-02T08:17:14.872Z,2.23
2024-02-02T08:22:18.307Z,2.50
2024-02-02T08:27:23.478Z,2.37
2024-02-02T08:32:27.105Z,2.50
2024-02-02T08:37:31.079Z,2.63
2024-02-02T08:42:36.001Z,2.77
2024-02-02T08:47:40.407Z,2.23
2024-02-02T08:52:44.945Z,2.40
2024-02-02T08:58:05.560Z,2.30
2024-02-02T09:03:25.916Z,2.57
2024-02-02T09:08:34.331Z,2.20
2024-02-02T09:13:39.773Z,1.93
2024-02-02T09:18:45.776Z,2.23
2024-02-02T09:23:51.283Z,1.63
2024-02-02T09:28:57.213Z,1.60
2024-02-02T09:34:06.188Z,2.37
2024-02-02T09:39:38.868Z,2.37
2024-02-02T09:44:51.366Z,1.47
2024-02-02T09:50:01.678Z,2.00
2024-02-02T09:55:13.903Z,1.17
2024-02-02T10:00:27.939Z,1.33
2024-02-02T10:05:40.687Z,1.33
2024-02-02T10:10:55.138Z,1.93
2024-02-02T10:16:11.613Z,1.07
2024-02-02T10:21:21.185Z,1.43
2024-02-02T10:26:34.499Z,1.23
2024-02-02T10:31:50.783Z,1.23
2024-02-02T10:37:13.541Z,2.03
2024-02-02T10:42:26.227Z,1.90
2024-02-02T10:47:48.144Z,1.23
2024-02-02T10:53:01.512Z,1.23
2024-02-02T10:58:07.450Z,1.63
2024-02-02T11:03:23.101Z,1.40
2024-02-02T11:08:30.507Z,1.50
2024-02-02T11:13:42.408Z,1.50
2024-02-02T11:19:02.203Z,1.77
2024-02-02T11:24:14.767Z,2.00
2024-02-02T11:29:25.460Z,1.20
2024-02-02T11:34:40.010Z,1.43
2024-02-02T11:39:55.327Z,1.47
2024-02-02T11:45:00.857Z,1.20
2024-02-02T11:50:06.795Z,1.57
2024-02-02T11:55:15.541Z,1.50
2024-02-02T12:00:29.272Z,1.30
2024-02-02T12:05:39.902Z,1.30
2024-02-02T12:10:44.532Z,1.70
2024-02-02T12:15:47.985Z,1.77
2024-02-02T12:20:52.924Z,1.73
2024-02-02T12:25:56.310Z,1.53
2024-02-02T12:30:59.677Z,1.57
2024-02-02T12:36:09.908Z,1.40
2024-02-02T12:41:15.801Z,1.70
2024-02-02T12:46:19.179Z,1.60
2024-02-02T12:51:24.728Z,1.63
2024-02-02T12:56:28.081Z,2.20
2024-02-02T13:01:31.401Z,1.30
2024-02-02T13:06:36.409Z,1.63
2024-02-02T13:11:44.887Z,1.40
2024-02-02T13:16:49.558Z,2.30
2024-02-02T13:22:02.837Z,1.87
2024-02-02T13:27:07.015Z,1.50
2024-02-02T13:32:17.871Z,1.40
2024-02-02T13:37:34.763Z,1.83
2024-02-02T13:42:38.823Z,2.60
2024-02-02T13:47:43.063Z,1.63
2024-02-02T13:52:50.783Z,1.83
2024-02-02T13:57:56.790Z,1.60
2024-02-02T14:03:11.626Z,1.80
2024-02-02T14:08:18.495Z,1.93
2024-02-02T14:13:21.855Z,1.83
2024-02-02T14:18:25.776Z,1.67
2024-02-02T14:23:32.294Z,2.30
2024-02-02T14:28:35.570Z,1.90
2024-02-02T14:33:39.095Z,2.17
2024-02-02T14:38:47.150Z,2.70
2024-02-02T14:43:50.577Z,2.23
2024-02-02T14:48:54.128Z,1.37
2024-02-02T14:53:59.090Z,1.60
2024-02-02T14:59:10.118Z,1.93
2024-02-02T15:04:14.027Z,1.70
2024-02-02T15:09:20.904Z,2.13
2024-02-02T15:14:24.417Z,1.90
2024-02-02T15:19:27.731Z,1.90
2024-02-02T15:24:33.115Z,1.40
2024-02-02T15:29:38.272Z,2.63
2024-02-02T15:34:41.912Z,1.50
2024-02-02T15:39:49.433Z,2.30
2024-02-02T15:44:53.298Z,1.80
2024-02-02T15:49:57.399Z,1.97
2024-02-02T15:55:04.827Z,1.93
2024-02-02T16:00:11.726Z,1.70
2024-02-02T16:05:17.497Z,2.00
2024-02-02T16:10:22.783Z,2.20
2024-02-02T16:15:26.841Z,2.63
2024-02-02T16:20:31.798Z,1.43
2024-02-02T16:25:37.118Z,1.83
2024-02-02T16:30:41.403Z,1.73
2024-02-02T16:35:44.674Z,1.93
2024-02-02T16:40:49.525Z,2.10
2024-02-02T16:45:53.650Z,1.90
2024-02-02T16:50:57.230Z,2.40
2024-02-02T16:56:01.964Z,2.13
2024-02-02T17:01:05.918Z,2.07
2024-02-02T17:06:10.215Z,1.87
2024-02-02T17:11:15.096Z,2.20
2024-02-02T17:16:20.831Z,2.30
2024-02-02T17:21:24.422Z,4.53
2024-02-02T17:26:29.521Z,5.90
2024-02-02T17:31:32.943Z,3.70
2024-02-02T17:36:36.386Z,2.23
2024-02-02T17:41:41.138Z,2.50
2024-02-02T17:46:51.261Z,2.00
2024-02-02T17:51:55.146Z,2.97
2024-02-02T17:57:00.211Z,1.90
2024-02-02T18:02:03.778Z,2.30
2024-02-02T18:07:09.836Z,2.77
2024-02-02T18:12:16.559Z,2.70
2024-02-02T18:17:20.255Z,3.10
2024-02-02T18:22:23.625Z,3.17
2024-02-02T18:27:28.424Z,2.17
2024-02-02T18:32:31.848Z,2.07
2024-02-02T18:37:35.440Z,1.97
2024-02-02T18:42:40.260Z,1.70
2024-02-02T18:47:43.862Z,2.17
2024-02-02T18:52:48.769Z,2.30
2024-02-02T18:57:53.805Z,2.00
2024-02-02T19:02:57.222Z,2.03
2024-02-02T19:08:01.104Z,2.47
2024-02-02T19:13:06.256Z,2.40
2024-02-02T19:18:10.116Z,1.70
2024-02-02T19:23:17.133Z,2.40
2024-02-02T19:28:22.077Z,3.17
2024-02-02T19:33:25.438Z,2.40
2024-02-02T19:38:29.168Z,2.70
2024-02-02T19:43:35.220Z,4.53
2024-02-02T19:48:38.853Z,2.70
2024-02-02T19:53:42.659Z,2.90
2024-02-02T19:58:47.828Z,2.93
2024-02-02T20:03:52.222Z,2.10
2024-02-02T20:08:56.217Z,2.83
2024-02-02T20:14:01.181Z,2.60
2024-02-02T20:19:06.430Z,2.47
2024-02-02T20:24:10.921Z,3.30
2024-02-02T20:29:17.733Z,3.17
2024-02-02T20:34:21.313Z,3.20
2024-02-02T20:39:24.826Z,3.53
2024-02-02T20:44:29.718Z,3.50
2024-02-02T20:49:33.406Z,3.73
2024-02-02T20:54:36.779Z,4.17
2024-02-02T20:59:42.421Z,3.90
2024-02-02T21:04:45.976Z,4.30
2024-02-02T21:09:49.971Z,4.10
2024-02-02T21:14:54.834Z,5.03
2024-02-02T21:19:59.456Z,4.47
2024-02-02T21:25:02.833Z,5.57
2024-02-02T21:30:08.846Z,5.17
2024-02-02T21:35:12.827Z,5.53
2024-02-02T21:40:16.658Z,5.30
2024-02-02T21:45:21.384Z,6.03
2024-02-02T21:50:24.750Z,5.23
2024-02-02T21:55:28.244Z,5.33
2024-02-02T22:00:33.085Z,5.70
2024-02-02T22:05:36.439Z,6.80
2024-02-02T22:10:39.847Z,6.80
2024-02-02T22:15:45.043Z,5.67
2024-02-02T22:20:49.088Z,6.83
2024-02-02T22:25:52.399Z,6.10
2024-02-02T22:30:57.250Z,6.53
2024-02-02T22:36:00.758Z,6.30
2024-02-02T22:41:17.043Z,6.60
2024-02-02T22:46:31.722Z,5.93
2024-02-02T22:51:35.184Z,5.50
2024-02-02T22:56:38.730Z,5.97
2024-02-02T23:01:43.645Z,5.40
2024-02-02T23:06:47.313Z,5.77
2024-02-02T23:11:51.174Z,5.90
2024-02-02T23:16:55.983Z,6.30
2024-02-02T23:21:59.337Z,5.73
2024-02-02T23:27:02.636Z,5.23
2024-02-02T23:32:08.577Z,6.47
2024-02-02T23:37:12.257Z,5.30
2024-02-02T23:42:15.819Z,5.70
2024-02-02T23:47:20.561Z,4.87
2024-02-02T23:52:23.931Z,5.33
2024-02-02T23:57:27.307Z,5.10
